createdAt,value
2019-04-12T00:02:13.598Z,95454.31
2019-04-12T00:04:41.942Z,95454.46
2019-04-12T00:07:11.186Z,95453.18
2019-04-12T00:09:39.607Z,95450.70
2019-04-12T00:12:08.170Z,95454.01
2019-04-12T00:14:36.565Z,95450.55
2019-04-12T00:17:04.909Z,95454.59
2019-04-12T00:19:33.257Z,95450.55
2019-04-12T00:27:10.270Z,95451.02
2019-04-12T00:29:38.641Z,95451.77
2019-04-12T00:32:06.974Z,95449.02
2019-04-12T00:34:35.316Z,95448.34
2019-04-12T00:37:03.718Z,95445.59
2019-04-12T00:39:32.078Z,95443.59
2019-04-12T00:42:02.744Z,95452.92
2019-04-12T00:44:31.096Z,95453.88
2019-04-12T00:47:09.023Z,95446.69
2019-04-12T00:49:33.807Z,95446.16
2019-04-12T00:52:02.137Z,95447.44
2019-04-12T00:54:30.558Z,95447.61
2019-04-12T00:56:58.943Z,95447.81
2019-04-12T00:59:27.288Z,95445.10
2019-04-12T01:01:57.525Z,95446.30
2019-04-12T01:04:26.253Z,95446.36
2019-04-12T01:06:54.625Z,95451.00
2019-04-12T01:09:23.210Z,95454.70
2019-04-12T01:11:54.950Z,95452.41
2019-04-12T01:16:54.404Z,95454.45
2019-04-12T01:19:22.736Z,95455.39
2019-04-12T01:21:51.084Z,95455.88
2019-04-12T01:24:19.451Z,95457.56
2019-04-12T01:26:47.838Z,95455.05
2019-04-12T01:29:17.987Z,95455.09
2019-04-12T01:31:44.544Z,95458.06
2019-04-12T01:34:12.929Z,95458.34
2019-04-12T01:36:41.298Z,95461.50
2019-04-12T01:41:44.675Z,95468.11
2019-04-12T01:44:13.093Z,95471.91
2019-04-12T01:46:41.496Z,95476.69
2019-04-12T01:49:09.944Z,95477.98
2019-04-12T01:51:38.334Z,95478.52
2019-04-12T01:54:06.721Z,95476.81
2019-04-12T01:56:35.130Z,95474.77
2019-04-12T01:59:03.440Z,95473.25
2019-04-12T02:01:31.779Z,95478.20
2019-04-12T02:04:00.124Z,95479.00
2019-04-12T02:06:28.535Z,95472.28
2019-04-12T02:08:56.923Z,95472.07
2019-04-12T02:11:25.264Z,95473.94
2019-04-12T02:13:53.600Z,95480.84
2019-04-12T02:16:22.010Z,95476.46
2019-04-12T02:18:50.449Z,95474.58
2019-04-12T02:21:19.840Z,95473.59
2019-04-12T02:23:48.228Z,95471.60
2019-04-12T02:26:16.574Z,95467.78
2019-04-12T02:28:50.625Z,95466.09
2019-04-12T02:31:19.018Z,95461.38
2019-04-12T02:33:47.412Z,95462.45
2019-04-12T02:36:15.750Z,95471.94
2019-04-12T02:41:18.390Z,95469.30
2019-04-12T02:43:46.786Z,95467.56
2019-04-12T02:46:15.113Z,95462.62
2019-04-12T02:48:47.301Z,95458.41
2019-04-12T02:51:17.127Z,95461.44
2019-04-12T02:53:55.381Z,95465.63
2019-04-12T02:59:00.311Z,95460.48
2019-04-12T03:01:28.640Z,95459.35
2019-04-12T03:03:56.986Z,95463.95
2019-04-12T03:06:25.454Z,95461.16
2019-04-12T03:08:53.825Z,95458.41
2019-04-12T03:11:22.169Z,95462.88
2019-04-12T03:13:50.695Z,95462.84
2019-04-12T03:16:19.074Z,95463.16
2019-04-12T03:18:47.500Z,95468.52
2019-04-12T03:21:15.978Z,95467.77
2019-04-12T03:23:44.396Z,95467.91
2019-04-12T03:28:49.031Z,95464.22
2019-04-12T03:31:17.543Z,95463.85
2019-04-12T03:33:45.920Z,95466.80
2019-04-12T03:36:14.283Z,95467.30
2019-04-12T03:38:42.631Z,95464.44
2019-04-12T03:41:11.004Z,95467.78
2019-04-12T03:43:39.376Z,95467.39
2019-04-12T03:46:07.780Z,95467.46
2019-04-12T03:48:36.125Z,95469.32
2019-04-12T03:51:04.607Z,95471.50
2019-04-12T03:53:32.946Z,95472.81
2019-04-12T03:56:08.693Z,95473.42
2019-04-12T03:58:29.698Z,95472.88
2019-04-12T04:00:58.047Z,95476.02
2019-04-12T04:06:00.766Z,95476.66
2019-04-12T04:08:30.204Z,95479.30
2019-04-12T04:10:58.557Z,95474.41
2019-04-12T04:13:27.057Z,95477.11
2019-04-12T04:15:55.318Z,95479.33
2019-04-12T04:18:23.829Z,95477.79
2019-04-12T04:20:53.026Z,95477.32
2019-04-12T04:23:24.148Z,95480.80
2019-04-12T04:25:57.305Z,95481.57
2019-04-12T04:28:29.868Z,95477.61
2019-04-12T04:36:06.665Z,95476.04
2019-04-12T04:38:35.210Z,95475.61
2019-04-12T04:41:03.577Z,95477.09
2019-04-12T04:43:31.923Z,95480.34
2019-04-12T04:46:00.303Z,95479.73
2019-04-12T04:48:28.664Z,95477.72
2019-04-12T04:50:57.029Z,95482.59
2019-04-12T04:53:25.432Z,95481.16
2019-04-12T04:55:53.841Z,95483.86
2019-04-12T04:58:22.211Z,95483.34
2019-04-12T05:00:50.601Z,95487.78
2019-04-12T05:03:19.699Z,95490.19
2019-04-12T05:05:48.063Z,95498.14
2019-04-12T05:08:16.409Z,95501.11
2019-04-12T05:10:44.783Z,95504.77
2019-04-12T05:13:13.246Z,95499.92
2019-04-12T05:15:41.613Z,95501.38
2019-04-12T05:18:10.001Z,95500.86
2019-04-12T05:20:38.344Z,95501.88
2019-04-12T05:23:07.792Z,95502.34
2019-04-12T05:25:37.108Z,95498.32
2019-04-12T05:28:05.458Z,95503.25
2019-04-12T05:30:33.846Z,95501.61
2019-04-12T05:33:03.171Z,95503.53
2019-04-12T05:35:31.623Z,95504.27
2019-04-12T05:37:59.967Z,95504.25
2019-04-12T05:43:05.621Z,95502.48
2019-04-12T05:48:08.417Z,95501.74
2019-04-12T05:50:37.528Z,95503.14
2019-04-12T05:53:06.031Z,95501.32
2019-04-12T05:55:34.377Z,95501.09
2019-04-12T06:01:00.713Z,95506.14
2019-04-12T06:03:29.070Z,95507.98
2019-04-12T06:06:01.333Z,95504.97
2019-04-12T06:08:25.877Z,95505.31
2019-04-12T06:10:54.269Z,95505.42
2019-04-12T06:13:22.624Z,95503.60
2019-04-12T06:15:51.020Z,95505.89
2019-04-12T06:18:19.425Z,95507.28
2019-04-12T06:21:03.375Z,95506.86
2019-04-12T06:23:31.724Z,95509.47
2019-04-12T06:26:01.653Z,95505.72
2019-04-12T06:28:29.939Z,95510.47
2019-04-12T06:30:58.292Z,95510.91
2019-04-12T06:33:26.641Z,95509.59
2019-04-12T06:35:55.083Z,95506.57
2019-04-12T06:38:24.391Z,95503.20
2019-04-12T06:40:53.852Z,95503.77
2019-04-12T06:43:22.267Z,95503.33
2019-04-12T06:45:50.749Z,95505.96
2019-04-12T06:48:19.141Z,95504.41
2019-04-12T06:50:47.469Z,95498.34
2019-04-12T06:53:15.863Z,95504.35
2019-04-12T06:58:38.274Z,95501.75
2019-04-12T07:01:14.012Z,95498.59
2019-04-12T07:03:56.263Z,95495.70
2019-04-12T07:06:14.657Z,95501.45
2019-04-12T07:08:43.036Z,95499.54
2019-04-12T07:11:11.424Z,95500.67
2019-04-12T07:13:39.767Z,95498.08
2019-04-12T07:18:44.452Z,95497.23
2019-04-12T07:21:12.810Z,95494.81
2019-04-12T07:23:41.221Z,95496.08
2019-04-12T07:26:09.612Z,95494.20
2019-04-12T07:28:38.002Z,95493.89
2019-04-12T07:31:06.378Z,95493.98
2019-04-12T07:33:34.723Z,95492.50
2019-04-12T07:36:03.140Z,95488.42
2019-04-12T07:38:31.487Z,95490.42
2019-04-12T07:40:59.830Z,95495.34
2019-04-12T07:43:28.184Z,95493.26
2019-04-12T07:45:57.510Z,95499.44
2019-04-12T07:48:25.847Z,95498.38
2019-04-12T07:53:40.868Z,95501.16
2019-04-12T07:56:10.257Z,95501.48
2019-04-12T08:01:15.168Z,95499.73
2019-04-12T08:03:46.280Z,95502.47
2019-04-12T08:06:15.416Z,95505.61
2019-04-12T08:08:43.858Z,95507.30
2019-04-12T08:11:13.272Z,95506.98
2019-04-12T08:13:41.647Z,95500.97
2019-04-12T08:16:10.160Z,95505.69
2019-04-12T08:18:38.520Z,95504.71
2019-04-12T08:21:06.870Z,95503.25
2019-04-12T08:23:35.218Z,95503.28
2019-04-12T08:26:03.568Z,95504.16
2019-04-12T08:28:31.939Z,95507.34
2019-04-12T08:31:00.340Z,95508.98
2019-04-12T08:36:02.936Z,95507.35
2019-04-12T08:38:31.394Z,95507.11
2019-04-12T08:40:59.804Z,95506.43
2019-04-12T08:43:28.193Z,95502.61
2019-04-12T08:45:56.557Z,95509.04
2019-04-12T08:48:25.009Z,95507.03
2019-04-12T08:53:28.697Z,95514.13
2019-04-12T08:55:57.069Z,95503.70
2019-04-12T08:58:25.488Z,95499.64
2019-04-12T09:03:28.248Z,95505.35
2019-04-12T09:05:56.681Z,95505.04
2019-04-12T09:08:25.079Z,95500.34
2019-04-12T09:10:53.433Z,95503.36
2019-04-12T09:13:21.855Z,95506.97
2019-04-12T09:15:50.204Z,95505.48
2019-04-12T09:18:18.636Z,95503.06
2019-04-12T09:23:46.383Z,95502.72
2019-04-12T09:26:14.799Z,95500.70
2019-04-12T09:28:43.097Z,95499.14
2019-04-12T09:31:11.564Z,95497.91
2019-04-12T09:33:39.915Z,95494.73
2019-04-12T09:36:08.149Z,95490.91
2019-04-12T09:41:11.762Z,95491.45
2019-04-12T09:43:40.108Z,95486.02
2019-04-12T09:46:08.521Z,95489.16
2019-04-12T09:48:36.833Z,95486.53
2019-04-12T09:51:05.160Z,95491.03
2019-04-12T09:53:33.507Z,95490.08
2019-04-12T09:56:01.874Z,95493.30
2019-04-12T09:58:37.152Z,95491.31
2019-04-12T10:03:35.935Z,95487.73
2019-04-12T10:08:38.578Z,95487.47
2019-04-12T10:11:07.010Z,95492.80
2019-04-12T10:18:44.840Z,95485.70
2019-04-12T10:21:13.210Z,95489.75
2019-04-12T10:23:41.589Z,95486.16
2019-04-12T10:26:09.980Z,95483.84
2019-04-12T10:28:49.625Z,95477.67
2019-04-12T10:31:06.738Z,95479.23
2019-04-12T10:33:35.146Z,95473.02
2019-04-12T10:38:38.001Z,95477.73
2019-04-12T10:41:06.439Z,95477.04
2019-04-12T10:46:23.938Z,95477.33
2019-04-12T10:54:27.529Z,95470.07
2019-04-12T10:56:55.890Z,95468.56
2019-04-12T11:01:58.432Z,95462.84
2019-04-12T11:04:27.110Z,95462.91
2019-04-12T11:12:04.125Z,95462.73
2019-04-12T11:14:32.492Z,95463.73
2019-04-12T11:17:00.835Z,95454.23
2019-04-12T11:19:29.251Z,95457.95
2019-04-12T11:21:58.575Z,95460.10
2019-04-12T11:27:01.250Z,95460.94
2019-04-12T11:32:03.957Z,95456.83
2019-04-12T11:34:33.252Z,95453.49
2019-04-12T11:37:02.552Z,95456.13
2019-04-12T11:42:05.164Z,95457.69
2019-04-12T11:44:33.535Z,95459.27
2019-04-12T11:47:01.888Z,95455.24
2019-04-12T11:49:30.316Z,95450.80
2019-04-12T11:51:58.665Z,95452.00
2019-04-12T11:54:27.021Z,95458.50
2019-04-12T11:56:55.391Z,95459.89
2019-04-12T11:59:29.458Z,95465.54
2019-04-12T12:01:57.788Z,95472.17
2019-04-12T12:07:28.935Z,95462.68
2019-04-12T12:15:36.392Z,95467.24
2019-04-12T12:18:04.753Z,95460.36
2019-04-12T12:20:33.101Z,95463.38
2019-04-12T12:23:01.471Z,95460.08
2019-04-12T12:28:04.180Z,95455.44
2019-04-12T12:30:32.608Z,95455.03
2019-04-12T12:33:00.977Z,95451.31
2019-04-12T12:35:29.362Z,95458.64
2019-04-12T12:40:31.932Z,95458.87
2019-04-12T12:43:00.331Z,95464.94
2019-04-12T12:48:03.061Z,95454.56
2019-04-12T12:50:31.501Z,95463.82
2019-04-12T12:52:59.850Z,95456.52
2019-04-12T12:55:28.200Z,95459.95
2019-04-12T13:00:30.832Z,95460.61
2019-04-12T13:02:59.253Z,95461.09
2019-04-12T13:05:27.619Z,95457.21
2019-04-12T13:07:56.018Z,95463.47
2019-04-12T13:10:24.612Z,95465.39
2019-04-12T13:12:52.982Z,95455.34
2019-04-12T13:17:55.546Z,95461.75
2019-04-12T13:20:23.977Z,95461.30
2019-04-12T13:22:52.353Z,95463.44
2019-04-12T13:27:55.068Z,95456.50
2019-04-12T13:33:28.276Z,95446.45
2019-04-12T13:36:02.197Z,95447.28
2019-04-12T13:38:36.155Z,95449.02
2019-04-12T13:41:04.571Z,95444.09
2019-04-12T13:43:32.892Z,95440.36
2019-04-12T13:46:01.518Z,95448.37
2019-04-12T13:48:30.850Z,95441.79
2019-04-12T13:53:33.635Z,95446.59
2019-04-12T13:58:36.196Z,95450.14
2019-04-12T14:01:04.537Z,95450.92
2019-04-12T14:03:32.897Z,95451.64
2019-04-12T14:06:01.410Z,95452.18
2019-04-12T14:08:29.892Z,95449.45
2019-04-12T14:10:58.263Z,95449.41
2019-04-12T14:16:00.896Z,95450.43
2019-04-12T14:18:29.353Z,95450.74
2019-04-12T14:20:58.667Z,95446.72
2019-04-12T14:23:27.027Z,95450.87
2019-04-12T14:25:55.372Z,95456.33
2019-04-12T14:28:29.765Z,95461.24
2019-04-12T14:30:52.240Z,95460.33
2019-04-12T14:33:31.283Z,95455.98
2019-04-12T14:35:59.638Z,95453.39
2019-04-12T14:41:04.308Z,95459.92
2019-04-12T14:46:26.269Z,95455.45
2019-04-12T14:48:54.682Z,95457.25
2019-04-12T14:51:23.064Z,95456.03
2019-04-12T14:58:59.823Z,95458.97
2019-04-12T15:01:28.241Z,95455.63
2019-04-12T15:03:56.580Z,95454.41
2019-04-12T15:08:59.192Z,95459.92
2019-04-12T15:11:27.636Z,95459.85
2019-04-12T15:16:30.245Z,95462.14
2019-04-12T15:18:58.613Z,95458.14
2019-04-12T15:24:01.297Z,95461.40
2019-04-12T15:26:29.681Z,95464.08
2019-04-12T15:28:58.067Z,95462.98
2019-04-12T15:31:26.430Z,95460.11
2019-04-12T15:33:54.941Z,95464.98
2019-04-12T15:36:23.335Z,95466.18
2019-04-12T15:38:51.700Z,95470.00
2019-04-12T15:41:20.106Z,95473.66
2019-04-12T15:43:48.488Z,95477.28
2019-04-12T15:46:16.828Z,95475.63
2019-04-12T15:48:45.250Z,95474.17
2019-04-12T15:51:13.629Z,95477.72
2019-04-12T15:53:42.023Z,95480.86
2019-04-12T15:56:10.479Z,95480.03
2019-04-12T15:58:38.809Z,95477.67
2019-04-12T16:01:11.930Z,95473.81
2019-04-12T16:03:35.532Z,95477.81
2019-04-12T16:06:03.865Z,95480.87
2019-04-12T16:08:32.428Z,95481.19
2019-04-12T16:16:38.817Z,95478.95
2019-04-12T16:19:07.164Z,95480.30
2019-04-12T16:21:35.503Z,95483.52
2019-04-12T16:24:03.956Z,95480.75
2019-04-12T16:26:32.306Z,95478.55
2019-04-12T16:29:04.192Z,95480.69
2019-04-12T16:34:17.569Z,95484.67
2019-04-12T16:36:48.193Z,95487.48
2019-04-12T16:39:17.421Z,95489.20
2019-04-12T16:41:45.762Z,95488.95
2019-04-12T16:44:14.158Z,95490.61
2019-04-12T16:46:42.544Z,95490.38
2019-04-12T16:49:10.912Z,95491.27
2019-04-12T16:51:39.250Z,95487.48
2019-04-12T16:54:07.619Z,95490.39
2019-04-12T16:59:13.188Z,95488.58
2019-04-12T17:01:41.637Z,95491.07
2019-04-12T17:04:09.988Z,95495.05
2019-04-12T17:06:38.336Z,95497.85
2019-04-12T17:09:06.691Z,95499.87
2019-04-12T17:11:35.026Z,95502.39
2019-04-12T17:16:37.632Z,95506.11
2019-04-12T17:21:40.229Z,95504.11
2019-04-12T17:24:08.572Z,95501.95
2019-04-12T17:26:36.900Z,95507.69
2019-04-12T17:29:05.249Z,95506.34
2019-04-12T17:31:33.606Z,95509.69
2019-04-12T17:34:01.980Z,95505.77
2019-04-12T17:36:30.372Z,95508.00
2019-04-12T17:38:58.840Z,95507.69
2019-04-12T17:41:27.280Z,95510.92
2019-04-12T17:43:55.631Z,95507.74
2019-04-12T17:46:24.009Z,95516.70
2019-04-12T17:54:28.455Z,95517.56
2019-04-12T17:56:57.272Z,95520.96
2019-04-12T17:59:25.633Z,95522.61
2019-04-12T18:02:02.022Z,95526.06
2019-04-12T18:04:25.310Z,95526.84
2019-04-12T18:09:27.868Z,95530.78
2019-04-12T18:11:56.244Z,95537.66
2019-04-12T18:14:24.662Z,95543.21
2019-04-12T18:16:53.017Z,95546.92
2019-04-12T18:19:21.512Z,95546.86
2019-04-12T18:21:49.833Z,95549.67
2019-04-12T18:24:18.270Z,95552.32
2019-04-12T18:26:47.579Z,95550.84
2019-04-12T18:29:15.924Z,95554.99
2019-04-12T18:31:44.338Z,95553.80
2019-04-12T18:34:12.714Z,95561.77
2019-04-12T18:36:41.094Z,95556.84
2019-04-12T18:39:09.493Z,95567.84
2019-04-12T18:41:37.937Z,95565.86
2019-04-12T18:44:06.263Z,95570.32
2019-04-12T18:46:34.832Z,95573.92
2019-04-12T18:49:04.168Z,95573.46
2019-04-12T18:54:07.088Z,95574.58
2019-04-12T18:56:35.427Z,95575.14
2019-04-12T18:59:03.779Z,95576.70
2019-04-12T19:01:32.195Z,95575.34
2019-04-12T19:04:00.531Z,95575.45
2019-04-12T19:06:29.017Z,95574.14
2019-04-12T19:08:57.362Z,95577.48
2019-04-12T19:11:26.349Z,95575.06
2019-04-12T19:13:54.699Z,95575.09
2019-04-12T19:16:23.123Z,95579.77
2019-04-12T19:18:51.465Z,95581.75
2019-04-12T19:21:19.904Z,95581.55
2019-04-12T19:23:48.282Z,95581.36
2019-04-12T19:26:16.649Z,95587.03
2019-04-12T19:28:45.098Z,95590.11
2019-04-12T19:31:13.482Z,95586.74
2019-04-12T19:36:23.774Z,95589.66
2019-04-12T19:38:57.698Z,95596.88
2019-04-12T19:41:26.038Z,95597.78
2019-04-12T19:43:54.500Z,95599.63
2019-04-12T19:46:22.944Z,95598.45
2019-04-12T19:48:51.385Z,95592.64
2019-04-12T19:51:19.784Z,95590.75
2019-04-12T19:53:48.206Z,95587.98
2019-04-12T19:56:16.610Z,95591.27
2019-04-12T19:58:44.988Z,95594.68
2019-04-12T20:01:13.451Z,95597.75
2019-04-12T20:03:42.240Z,95592.84
2019-04-12T20:06:10.676Z,95595.97
2019-04-12T20:08:39.108Z,95597.95
2019-04-12T20:11:07.530Z,95597.89
2019-04-12T20:13:35.970Z,95600.42
2019-04-12T20:16:04.378Z,95598.88
2019-04-12T20:18:32.812Z,95597.11
2019-04-12T20:23:38.450Z,95591.09
2019-04-12T20:26:08.588Z,95587.60
2019-04-12T20:31:13.228Z,95592.59
2019-04-12T20:33:41.648Z,95591.05
2019-04-12T20:38:46.364Z,95595.03
2019-04-12T20:41:14.757Z,95593.67
2019-04-12T20:43:43.099Z,95594.64
2019-04-12T20:46:11.520Z,95591.03
2019-04-12T20:48:40.009Z,95588.09
2019-04-12T20:51:08.465Z,95583.41
2019-04-12T20:53:36.994Z,95586.73
2019-04-12T20:56:15.107Z,95584.16
2019-04-12T20:58:33.876Z,95585.38
2019-04-12T21:03:38.501Z,95595.25
2019-04-12T21:08:43.125Z,95598.25
2019-04-12T21:11:11.554Z,95596.17
2019-04-12T21:13:39.953Z,95590.67
2019-04-12T21:16:08.402Z,95594.93
2019-04-12T21:18:36.879Z,95593.30
2019-04-12T21:23:44.540Z,95593.39
2019-04-12T21:26:12.880Z,95592.47
2019-04-12T21:28:41.333Z,95595.92
2019-04-12T21:31:09.738Z,95599.47
2019-04-12T21:33:40.103Z,95595.42
2019-04-12T21:36:09.270Z,95597.95
2019-04-12T21:38:37.676Z,95595.81
2019-04-12T21:41:06.140Z,95596.61
2019-04-12T21:43:34.593Z,95600.92
2019-04-12T21:46:02.930Z,95595.28
2019-04-12T21:48:31.275Z,95592.75
2019-04-12T21:50:59.637Z,95591.75
2019-04-12T21:53:28.028Z,95588.08
2019-04-12T21:55:56.390Z,95585.77
2019-04-12T21:58:24.936Z,95588.84
2019-04-12T22:00:53.277Z,95591.20
2019-04-12T22:03:21.687Z,95591.64
2019-04-12T22:05:50.035Z,95597.61
2019-04-12T22:08:18.380Z,95591.94
2019-04-12T22:10:46.811Z,95594.29
2019-04-12T22:13:15.207Z,95591.20
2019-04-12T22:15:43.566Z,95585.55
2019-04-12T22:18:11.969Z,95586.14
2019-04-12T22:20:40.355Z,95586.02
2019-04-12T22:23:08.718Z,95579.31
2019-04-12T22:25:37.928Z,95581.74
2019-04-12T22:28:06.301Z,95577.22
2019-04-12T22:30:34.703Z,95577.94
2019-04-12T22:33:03.121Z,95584.00
2019-04-12T22:38:08.749Z,95589.80
2019-04-12T22:40:37.098Z,95592.98
2019-04-12T22:43:05.554Z,95592.16
2019-04-12T22:45:33.957Z,95589.14
2019-04-12T22:48:02.327Z,95593.64
2019-04-12T22:53:04.847Z,95582.17
2019-04-12T22:55:33.193Z,95583.02
2019-04-12T22:58:01.525Z,95585.44
2019-04-12T23:00:29.869Z,95586.20
2019-04-12T23:02:58.218Z,95583.98
2019-04-12T23:05:26.560Z,95578.48
2019-04-12T23:07:54.911Z,95574.29
2019-04-12T23:10:23.381Z,95576.70
2019-04-12T23:12:52.070Z,95582.86
2019-04-12T23:15:20.400Z,95576.23
2019-04-12T23:17:48.768Z,95577.78
2019-04-12T23:20:17.125Z,95575.77
2019-04-12T23:22:45.496Z,95578.64
2019-04-12T23:25:13.832Z,95575.58
2019-04-12T23:27:42.257Z,95573.91
2019-04-12T23:30:10.848Z,95575.91
2019-04-12T23:32:39.245Z,95573.48
2019-04-12T23:35:09.559Z,95572.91
2019-04-12T23:37:39.693Z,95569.98
2019-04-12T23:40:08.036Z,95570.13
2019-04-12T23:45:11.607Z,95567.19
2019-04-12T23:47:40.914Z,95566.06
2019-04-12T23:50:09.376Z,95560.09
2019-04-12T23:52:39.724Z,95554.39
2019-04-12T23:55:08.059Z,95550.64
2019-04-12T23:57:36.407Z,95546.70
